sensor_id;sensor_type;location;lat;lon;timestamp;temperature;humidity
41630;DHT22;27322;49.488;8.480;2023-07-29T00:02:08;19.20;99.90
41630;DHT22;27322;49.488;8.480;2023-07-29T00:04:33;19.20;99.90
41630;DHT22;27322;49.488;8.480;2023-07-29T00:06:59;19.20;99.90
41630;DHT22;27322;49.488;8.480;2023-07-29T00:09:24;19.20;99.90
41630;DHT22;27322;49.488;8.480;2023-07-29T00:11:50;19.20;99.90
41630;DHT22;27322;49.488;8.480;2023-07-29T00:14:16;19.20;99.90
41630;DHT22;27322;49.488;8.480;2023-07-29T00:16:41;19.20;99.90
41630;DHT22;27322;49.488;8.480;2023-07-29T00:19:08;19.20;99.90
41630;DHT22;27322;49.488;8.480;2023-07-29T00:21:33;19.20;99.90
41630;DHT22;27322;49.488;8.480;2023-07-29T00:23:59;19.20;99.90
41630;DHT22;27322;49.488;8.480;2023-07-29T00:26:26;19.20;99.90
41630;DHT22;27322;49.488;8.480;2023-07-29T00:28:54;19.20;99.90
41630;DHT22;27322;49.488;8.480;2023-07-29T00:31:20;19.20;99.90
41630;DHT22;27322;49.488;8.480;2023-07-29T00:33:46;19.20;99.90
41630;DHT22;27322;49.488;8.480;2023-07-29T00:36:11;19.20;99.90
41630;DHT22;27322;49.488;8.480;2023-07-29T00:38:37;19.20;99.90
41630;DHT22;27322;49.488;8.480;2023-07-29T00:41:02;19.20;99.90
41630;DHT22;27322;49.488;8.480;2023-07-29T00:43:29;19.20;99.90
41630;DHT22;27322;49.488;8.480;2023-07-29T00:45:54;19.20;99.90
41630;DHT22;27322;49.488;8.480;2023-07-29T00:48:22;19.10;99.90
41630;DHT22;27322;49.488;8.480;2023-07-29T00:50:49;19.10;99.90
41630;DHT22;27322;49.488;8.480;2023-07-29T00:53:15;19.20;99.90
41630;DHT22;27322;49.488;8.480;2023-07-29T00:55:42;19.10;99.90
41630;DHT22;27322;49.488;8.480;2023-07-29T00:58:07;19.10;99.90
41630;DHT22;27322;49.488;8.480;2023-07-29T01:00:33;19.10;99.90
41630;DHT22;27322;49.488;8.480;2023-07-29T01:02:59;19.10;99.90
41630;DHT22;27322;49.488;8.480;2023-07-29T01:05:30;19.10;99.90
41630;DHT22;27322;49.488;8.480;2023-07-29T01:08:25;19.10;99.90
41630;DHT22;27322;49.488;8.480;2023-07-29T01:14:06;19.10;99.90
41630;DHT22;27322;49.488;8.480;2023-07-29T01:16:58;19.10;99.90
41630;DHT22;27322;49.488;8.480;2023-07-29T01:21:57;19.00;99.90
41630;DHT22;27322;49.488;8.480;2023-07-29T01:24:23;19.00;99.90
41630;DHT22;27322;49.488;8.480;2023-07-29T01:26:49;19.00;99.90
41630;DHT22;27322;49.488;8.480;2023-07-29T01:29:14;19.00;99.90
41630;DHT22;27322;49.488;8.480;2023-07-29T01:31:44;19.00;99.90
41630;DHT22;27322;49.488;8.480;2023-07-29T01:34:17;19.00;99.90
41630;DHT22;27322;49.488;8.480;2023-07-29T01:36:47;19.00;99.90
41630;DHT22;27322;49.488;8.480;2023-07-29T01:39:14;19.00;99.90
41630;DHT22;27322;49.488;8.480;2023-07-29T01:41:43;19.00;99.90
41630;DHT22;27322;49.488;8.480;2023-07-29T01:44:10;19.00;99.90
41630;DHT22;27322;49.488;8.480;2023-07-29T01:46:36;18.90;99.90
41630;DHT22;27322;49.488;8.480;2023-07-29T01:49:02;19.00;99.90
41630;DHT22;27322;49.488;8.480;2023-07-29T01:51:28;18.90;99.90
41630;DHT22;27322;49.488;8.480;2023-07-29T01:53:53;18.90;99.90
41630;DHT22;27322;49.488;8.480;2023-07-29T01:56:21;18.90;99.90
41630;DHT22;27322;49.488;8.480;2023-07-29T01:58:46;18.90;99.90
41630;DHT22;27322;49.488;8.480;2023-07-29T02:01:12;18.90;99.90
41630;DHT22;27322;49.488;8.480;2023-07-29T02:03:38;18.90;99.90
41630;DHT22;27322;49.488;8.480;2023-07-29T02:06:03;18.90;99.90
41630;DHT22;27322;49.488;8.480;2023-07-29T02:08:29;18.90;99.90
41630;DHT22;27322;49.488;8.480;2023-07-29T02:10:54;18.90;99.90
41630;DHT22;27322;49.488;8.480;2023-07-29T02:13:20;18.90;99.90
41630;DHT22;27322;49.488;8.480;2023-07-29T02:15:46;18.80;99.90
41630;DHT22;27322;49.488;8.480;2023-07-29T02:18:11;18.90;99.90
41630;DHT22;27322;49.488;8.480;2023-07-29T02:20:37;18.80;99.90
41630;DHT22;27322;49.488;8.480;2023-07-29T02:23:02;18.80;99.90
41630;DHT22;27322;49.488;8.480;2023-07-29T02:25:28;18.80;99.90
41630;DHT22;27322;49.488;8.480;2023-07-29T02:27:54;18.80;99.90
41630;DHT22;27322;49.488;8.480;2023-07-29T02:30:20;18.80;99.90
41630;DHT22;27322;49.488;8.480;2023-07-29T02:32:46;18.80;99.90
41630;DHT22;27322;49.488;8.480;2023-07-29T02:35:12;18.80;99.90
41630;DHT22;27322;49.488;8.480;2023-07-29T02:37:37;18.80;99.90
41630;DHT22;27322;49.488;8.480;2023-07-29T02:40:03;18.90;99.90
41630;DHT22;27322;49.488;8.480;2023-07-29T02:42:29;18.80;99.90
41630;DHT22;27322;49.488;8.480;2023-07-29T02:44:54;18.90;99.90
41630;DHT22;27322;49.488;8.480;2023-07-29T02:47:20;18.80;99.90
41630;DHT22;27322;49.488;8.480;2023-07-29T02:49:46;18.80;99.90
41630;DHT22;27322;49.488;8.480;2023-07-29T02:52:11;18.80;99.90
41630;DHT22;27322;49.488;8.480;2023-07-29T02:54:37;18.80;99.90
41630;DHT22;27322;49.488;8.480;2023-07-29T02:57:03;18.80;99.90
41630;DHT22;27322;49.488;8.480;2023-07-29T02:59:28;18.80;99.90
41630;DHT22;27322;49.488;8.480;2023-07-29T03:01:54;18.80;99.90
41630;DHT22;27322;49.488;8.480;2023-07-29T03:04:21;18.80;99.90
41630;DHT22;27322;49.488;8.480;2023-07-29T03:06:46;18.80;99.90
41630;DHT22;27322;49.488;8.480;2023-07-29T03:09:13;18.80;99.90
41630;DHT22;27322;49.488;8.480;2023-07-29T03:11:39;18.80;99.90
41630;DHT22;27322;49.488;8.480;2023-07-29T03:14:05;18.80;99.90
41630;DHT22;27322;49.488;8.480;2023-07-29T03:16:31;18.80;99.90
41630;DHT22;27322;49.488;8.480;2023-07-29T03:18:56;18.80;99.90
41630;DHT22;27322;49.488;8.480;2023-07-29T03:21:23;18.80;99.90
41630;DHT22;27322;49.488;8.480;2023-07-29T03:23:48;18.80;99.90
41630;DHT22;27322;49.488;8.480;2023-07-29T03:26:14;18.80;99.90
41630;DHT22;27322;49.488;8.480;2023-07-29T03:28:43;18.80;99.90
41630;DHT22;27322;49.488;8.480;2023-07-29T03:31:08;18.80;99.90
41630;DHT22;27322;49.488;8.480;2023-07-29T03:33:34;18.80;99.90
41630;DHT22;27322;49.488;8.480;2023-07-29T03:36:00;18.80;99.90
41630;DHT22;27322;49.488;8.480;2023-07-29T03:38:26;18.80;99.90
41630;DHT22;27322;49.488;8.480;2023-07-29T03:40:52;18.80;99.90
41630;DHT22;27322;49.488;8.480;2023-07-29T03:43:19;18.80;99.90
41630;DHT22;27322;49.488;8.480;2023-07-29T03:45:44;18.80;99.90
41630;DHT22;27322;49.488;8.480;2023-07-29T03:48:10;18.80;99.90
41630;DHT22;27322;49.488;8.480;2023-07-29T03:50:36;18.80;99.90
41630;DHT22;27322;49.488;8.480;2023-07-29T03:53:03;18.80;99.90
41630;DHT22;27322;49.488;8.480;2023-07-29T03:55:29;18.80;99.90
41630;DHT22;27322;49.488;8.480;2023-07-29T03:57:59;18.80;99.90
41630;DHT22;27322;49.488;8.480;2023-07-29T04:00:25;18.80;99.90
41630;DHT22;27322;49.488;8.480;2023-07-29T04:02:51;18.80;99.90
41630;DHT22;27322;49.488;8.480;2023-07-29T04:05:17;18.80;99.90
41630;DHT22;27322;49.488;8.480;2023-07-29T04:07:43;18.80;99.90
41630;DHT22;27322;49.488;8.480;2023-07-29T04:10:09;18.80;99.90
41630;DHT22;27322;49.488;8.480;2023-07-29T04:12:34;18.70;99.90
41630;DHT22;27322;49.488;8.480;2023-07-29T04:15:00;18.80;99.90
41630;DHT22;27322;49.488;8.480;2023-07-29T04:17:26;18.80;99.90
41630;DHT22;27322;49.488;8.480;2023-07-29T04:19:52;18.80;99.90
41630;DHT22;27322;49.488;8.480;2023-07-29T04:22:17;18.80;99.90
41630;DHT22;27322;49.488;8.480;2023-07-29T04:24:43;18.80;99.90
41630;DHT22;27322;49.488;8.480;2023-07-29T04:27:08;18.80;99.90
41630;DHT22;27322;49.488;8.480;2023-07-29T04:29:34;18.80;99.90
41630;DHT22;27322;49.488;8.480;2023-07-29T04:32:04;18.80;99.90
41630;DHT22;27322;49.488;8.480;2023-07-29T04:34:30;18.80;99.90
41630;DHT22;27322;49.488;8.480;2023-07-29T04:36:56;18.80;99.90
41630;DHT22;27322;49.488;8.480;2023-07-29T04:39:22;18.80;99.90
41630;DHT22;27322;49.488;8.480;2023-07-29T04:41:47;18.80;99.90
41630;DHT22;27322;49.488;8.480;2023-07-29T04:44:13;18.80;99.90
41630;DHT22;27322;49.488;8.480;2023-07-29T04:46:38;18.80;99.90
41630;DHT22;27322;49.488;8.480;2023-07-29T04:49:04;18.80;99.90
41630;DHT22;27322;49.488;8.480;2023-07-29T04:51:30;18.80;99.90
41630;DHT22;27322;49.488;8.480;2023-07-29T04:53:57;18.90;99.90
41630;DHT22;27322;49.488;8.480;2023-07-29T04:56:23;18.90;99.90
41630;DHT22;27322;49.488;8.480;2023-07-29T04:58:49;18.90;99.90
41630;DHT22;27322;49.488;8.480;2023-07-29T05:01:14;18.80;99.90
41630;DHT22;27322;49.488;8.480;2023-07-29T05:03:40;18.80;99.90
41630;DHT22;27322;49.488;8.480;2023-07-29T05:06:06;18.80;99.90
41630;DHT22;27322;49.488;8.480;2023-07-29T05:08:31;18.80;99.90
41630;DHT22;27322;49.488;8.480;2023-07-29T05:10:57;18.90;99.90
41630;DHT22;27322;49.488;8.480;2023-07-29T05:13:23;18.90;99.90
41630;DHT22;27322;49.488;8.480;2023-07-29T05:15:49;18.90;99.90
41630;DHT22;27322;49.488;8.480;2023-07-29T05:18:16;18.90;99.90
41630;DHT22;27322;49.488;8.480;2023-07-29T05:20:42;18.90;99.90
41630;DHT22;27322;49.488;8.480;2023-07-29T05:23:07;18.90;99.90
41630;DHT22;27322;49.488;8.480;2023-07-29T05:25:33;18.90;99.90
41630;DHT22;27322;49.488;8.480;2023-07-29T05:28:02;18.90;99.90
41630;DHT22;27322;49.488;8.480;2023-07-29T05:30:28;18.90;99.90
41630;DHT22;27322;49.488;8.480;2023-07-29T05:32:57;18.90;99.90
41630;DHT22;27322;49.488;8.480;2023-07-29T05:35:23;18.90;99.90
41630;DHT22;27322;49.488;8.480;2023-07-29T05:37:48;18.90;99.90
41630;DHT22;27322;49.488;8.480;2023-07-29T05:40:14;18.90;99.90
41630;DHT22;27322;49.488;8.480;2023-07-29T05:42:39;19.00;99.90
41630;DHT22;27322;49.488;8.480;2023-07-29T05:45:06;19.00;99.90
41630;DHT22;27322;49.488;8.480;2023-07-29T05:47:31;19.00;99.90
41630;DHT22;27322;49.488;8.480;2023-07-29T05:49:57;19.00;99.90
41630;DHT22;27322;49.488;8.480;2023-07-29T05:52:23;19.00;99.90
41630;DHT22;27322;49.488;8.480;2023-07-29T05:54:48;19.00;99.90
41630;DHT22;27322;49.488;8.480;2023-07-29T05:57:14;19.00;99.90
41630;DHT22;27322;49.488;8.480;2023-07-29T05:59:39;19.10;99.90
41630;DHT22;27322;49.488;8.480;2023-07-29T06:02:06;19.10;99.90
41630;DHT22;27322;49.488;8.480;2023-07-29T06:04:31;19.10;99.90
41630;DHT22;27322;49.488;8.480;2023-07-29T06:06:57;19.10;99.90
41630;DHT22;27322;49.488;8.480;2023-07-29T06:09:23;19.10;99.90
41630;DHT22;27322;49.488;8.480;2023-07-29T06:11:48;19.20;99.90
41630;DHT22;27322;49.488;8.480;2023-07-29T06:14:14;19.20;99.90
41630;DHT22;27322;49.488;8.480;2023-07-29T06:16:40;19.20;99.90
41630;DHT22;27322;49.488;8.480;2023-07-29T06:19:05;19.20;99.90
41630;DHT22;27322;49.488;8.480;2023-07-29T06:21:34;19.20;99.90
41630;DHT22;27322;49.488;8.480;2023-07-29T06:24:00;19.20;99.90
41630;DHT22;27322;49.488;8.480;2023-07-29T06:26:25;19.20;99.90
41630;DHT22;27322;49.488;8.480;2023-07-29T06:28:51;19.30;99.90
41630;DHT22;27322;49.488;8.480;2023-07-29T06:31:16;19.30;99.90
41630;DHT22;27322;49.488;8.480;2023-07-29T06:33:42;19.30;99.90
41630;DHT22;27322;49.488;8.480;2023-07-29T06:36:08;19.30;99.90
41630;DHT22;27322;49.488;8.480;2023-07-29T06:38:33;19.30;99.90
41630;DHT22;27322;49.488;8.480;2023-07-29T06:40:59;19.40;99.90
41630;DHT22;27322;49.488;8.480;2023-07-29T06:43:24;19.40;99.90
41630;DHT22;27322;49.488;8.480;2023-07-29T06:45:50;19.40;99.90
41630;DHT22;27322;49.488;8.480;2023-07-29T06:48:17;19.40;99.90
41630;DHT22;27322;49.488;8.480;2023-07-29T06:50:44;19.50;99.90
41630;DHT22;27322;49.488;8.480;2023-07-29T06:53:09;19.50;99.90
41630;DHT22;27322;49.488;8.480;2023-07-29T06:55:35;19.50;99.90
41630;DHT22;27322;49.488;8.480;2023-07-29T06:58:00;19.50;99.90
41630;DHT22;27322;49.488;8.480;2023-07-29T07:00:26;19.50;99.90
41630;DHT22;27322;49.488;8.480;2023-07-29T07:02:52;19.50;99.90
41630;DHT22;27322;49.488;8.480;2023-07-29T07:05:17;19.60;99.90
41630;DHT22;27322;49.488;8.480;2023-07-29T07:07:43;19.60;99.90
41630;DHT22;27322;49.488;8.480;2023-07-29T07:10:09;19.70;99.90
41630;DHT22;27322;49.488;8.480;2023-07-29T07:12:34;19.70;99.90
41630;DHT22;27322;49.488;8.480;2023-07-29T07:15:00;19.70;99.90
41630;DHT22;27322;49.488;8.480;2023-07-29T07:17:26;19.70;99.90
41630;DHT22;27322;49.488;8.480;2023-07-29T07:19:52;19.80;99.90
41630;DHT22;27322;49.488;8.480;2023-07-29T07:22:17;19.80;99.90
41630;DHT22;27322;49.488;8.480;2023-07-29T07:24:43;19.90;99.90
41630;DHT22;27322;49.488;8.480;2023-07-29T07:27:09;19.90;99.90
41630;DHT22;27322;49.488;8.480;2023-07-29T07:29:35;19.90;99.90
41630;DHT22;27322;49.488;8.480;2023-07-29T07:32:00;20.00;99.90
41630;DHT22;27322;49.488;8.480;2023-07-29T07:34:26;20.00;99.90
41630;DHT22;27322;49.488;8.480;2023-07-29T07:36:51;19.90;99.90
41630;DHT22;27322;49.488;8.480;2023-07-29T07:39:17;19.90;99.90
41630;DHT22;27322;49.488;8.480;2023-07-29T07:41:43;19.90;99.90
41630;DHT22;27322;49.488;8.480;2023-07-29T07:44:08;20.00;99.90
41630;DHT22;27322;49.488;8.480;2023-07-29T07:46:34;20.00;99.90
41630;DHT22;27322;49.488;8.480;2023-07-29T07:49:00;20.00;99.90
41630;DHT22;27322;49.488;8.480;2023-07-29T07:51:25;20.00;99.90
41630;DHT22;27322;49.488;8.480;2023-07-29T07:53:51;20.00;99.90
41630;DHT22;27322;49.488;8.480;2023-07-29T07:56:16;20.00;99.90
41630;DHT22;27322;49.488;8.480;2023-07-29T07:58:42;20.10;99.90
41630;DHT22;27322;49.488;8.480;2023-07-29T08:01:08;20.10;99.90
41630;DHT22;27322;49.488;8.480;2023-07-29T08:03:35;20.10;99.90
41630;DHT22;27322;49.488;8.480;2023-07-29T08:06:02;20.10;99.90
41630;DHT22;27322;49.488;8.480;2023-07-29T08:08:27;20.20;99.90
41630;DHT22;27322;49.488;8.480;2023-07-29T08:10:54;20.20;99.90
41630;DHT22;27322;49.488;8.480;2023-07-29T08:13:22;20.20;99.90
41630;DHT22;27322;49.488;8.480;2023-07-29T08:15:48;20.10;99.90
41630;DHT22;27322;49.488;8.480;2023-07-29T08:18:14;20.10;99.90
41630;DHT22;27322;49.488;8.480;2023-07-29T08:20:40;20.10;99.90
41630;DHT22;27322;49.488;8.480;2023-07-29T08:23:06;20.10;99.90
41630;DHT22;27322;49.488;8.480;2023-07-29T08:25:32;20.10;99.90
41630;DHT22;27322;49.488;8.480;2023-07-29T08:27:57;20.10;99.90
41630;DHT22;27322;49.488;8.480;2023-07-29T08:30:23;20.10;99.90
41630;DHT22;27322;49.488;8.480;2023-07-29T08:32:48;20.10;99.90
41630;DHT22;27322;49.488;8.480;2023-07-29T08:35:14;20.20;99.90
41630;DHT22;27322;49.488;8.480;2023-07-29T08:37:40;20.20;99.90
41630;DHT22;27322;49.488;8.480;2023-07-29T08:40:06;20.20;99.90
41630;DHT22;27322;49.488;8.480;2023-07-29T08:42:32;20.20;99.90
41630;DHT22;27322;49.488;8.480;2023-07-29T08:45:05;20.20;99.90
41630;DHT22;27322;49.488;8.480;2023-07-29T08:47:32;20.30;99.90
41630;DHT22;27322;49.488;8.480;2023-07-29T08:49:58;20.30;99.90
41630;DHT22;27322;49.488;8.480;2023-07-29T08:52:25;20.40;99.90
41630;DHT22;27322;49.488;8.480;2023-07-29T08:54:51;20.40;99.90
41630;DHT22;27322;49.488;8.480;2023-07-29T08:57:19;20.40;99.90
41630;DHT22;27322;49.488;8.480;2023-07-29T08:59:45;20.40;99.90
41630;DHT22;27322;49.488;8.480;2023-07-29T09:02:11;20.40;99.90
41630;DHT22;27322;49.488;8.480;2023-07-29T09:04:37;20.50;99.90
41630;DHT22;27322;49.488;8.480;2023-07-29T09:07:03;20.50;99.90
41630;DHT22;27322;49.488;8.480;2023-07-29T09:09:30;20.60;99.90
41630;DHT22;27322;49.488;8.480;2023-07-29T09:11:55;20.60;99.90
41630;DHT22;27322;49.488;8.480;2023-07-29T09:14:21;20.70;99.90
41630;DHT22;27322;49.488;8.480;2023-07-29T09:16:48;20.70;99.90
41630;DHT22;27322;49.488;8.480;2023-07-29T09:19:14;20.70;99.90
41630;DHT22;27322;49.488;8.480;2023-07-29T09:21:40;20.80;99.90
41630;DHT22;27322;49.488;8.480;2023-07-29T09:24:06;20.80;99.90
41630;DHT22;27322;49.488;8.480;2023-07-29T09:26:33;20.90;99.90
41630;DHT22;27322;49.488;8.480;2023-07-29T09:28:59;21.00;99.90
41630;DHT22;27322;49.488;8.480;2023-07-29T09:31:26;21.00;99.90
41630;DHT22;27322;49.488;8.480;2023-07-29T09:34:00;21.10;99.90
41630;DHT22;27322;49.488;8.480;2023-07-29T09:36:27;21.10;99.90
41630;DHT22;27322;49.488;8.480;2023-07-29T09:38:56;21.10;99.90
41630;DHT22;27322;49.488;8.480;2023-07-29T09:41:26;21.10;99.90
41630;DHT22;27322;49.488;8.480;2023-07-29T09:43:57;21.20;99.90
41630;DHT22;27322;49.488;8.480;2023-07-29T09:46:24;21.30;99.90
41630;DHT22;27322;49.488;8.480;2023-07-29T09:48:53;21.30;99.90
41630;DHT22;27322;49.488;8.480;2023-07-29T09:51:22;21.40;99.90
41630;DHT22;27322;49.488;8.480;2023-07-29T09:53:49;21.50;99.90
41630;DHT22;27322;49.488;8.480;2023-07-29T09:56:15;21.50;99.90
41630;DHT22;27322;49.488;8.480;2023-07-29T09:58:43;21.60;99.90
41630;DHT22;27322;49.488;8.480;2023-07-29T10:01:10;21.60;99.90
41630;DHT22;27322;49.488;8.480;2023-07-29T10:03:37;21.60;99.90
41630;DHT22;27322;49.488;8.480;2023-07-29T10:06:04;21.60;99.90
41630;DHT22;27322;49.488;8.480;2023-07-29T10:08:31;21.60;99.90
41630;DHT22;27322;49.488;8.480;2023-07-29T10:10:59;21.60;99.90
41630;DHT22;27322;49.488;8.480;2023-07-29T10:13:26;21.70;99.90
41630;DHT22;27322;49.488;8.480;2023-07-29T10:15:54;21.80;99.90
41630;DHT22;27322;49.488;8.480;2023-07-29T10:18:22;21.80;99.90
41630;DHT22;27322;49.488;8.480;2023-07-29T10:20:50;21.80;99.90
41630;DHT22;27322;49.488;8.480;2023-07-29T10:23:27;21.80;99.90
41630;DHT22;27322;49.488;8.480;2023-07-29T10:26:04;21.70;99.90
41630;DHT22;27322;49.488;8.480;2023-07-29T10:28:31;21.70;99.90
41630;DHT22;27322;49.488;8.480;2023-07-29T10:30:58;21.70;99.90
41630;DHT22;27322;49.488;8.480;2023-07-29T10:33:24;21.70;99.90
41630;DHT22;27322;49.488;8.480;2023-07-29T10:35:50;21.80;99.90
41630;DHT22;27322;49.488;8.480;2023-07-29T10:38:16;21.80;99.90
41630;DHT22;27322;49.488;8.480;2023-07-29T10:40:48;21.90;99.90
41630;DHT22;27322;49.488;8.480;2023-07-29T10:43:19;21.90;99.90
41630;DHT22;27322;49.488;8.480;2023-07-29T10:45:49;22.10;99.90
41630;DHT22;27322;49.488;8.480;2023-07-29T10:51:24;22.40;99.90
41630;DHT22;27322;49.488;8.480;2023-07-29T10:54:17;22.70;99.90
41630;DHT22;27322;49.488;8.480;2023-07-29T10:56:47;23.10;99.90
41630;DHT22;27322;49.488;8.480;2023-07-29T11:01:43;23.50;99.90
41630;DHT22;27322;49.488;8.480;2023-07-29T11:09:52;23.20;99.90
41630;DHT22;27322;49.488;8.480;2023-07-29T11:12:38;23.10;99.90
41630;DHT22;27322;49.488;8.480;2023-07-29T11:15:21;22.80;99.90
41630;DHT22;27322;49.488;8.480;2023-07-29T11:17:51;22.70;99.90
41630;DHT22;27322;49.488;8.480;2023-07-29T11:20:20;22.60;99.90
41630;DHT22;27322;49.488;8.480;2023-07-29T11:22:46;22.50;99.90
41630;DHT22;27322;49.488;8.480;2023-07-29T11:25:13;22.50;99.90
41630;DHT22;27322;49.488;8.480;2023-07-29T11:27:39;22.50;99.90
41630;DHT22;27322;49.488;8.480;2023-07-29T11:30:07;22.60;99.90
41630;DHT22;27322;49.488;8.480;2023-07-29T11:32:37;22.60;99.90
41630;DHT22;27322;49.488;8.480;2023-07-29T11:35:08;22.70;99.90
41630;DHT22;27322;49.488;8.480;2023-07-29T11:37:35;22.80;99.90
41630;DHT22;27322;49.488;8.480;2023-07-29T11:40:01;22.80;99.90
41630;DHT22;27322;49.488;8.480;2023-07-29T11:42:27;22.80;99.90
41630;DHT22;27322;49.488;8.480;2023-07-29T11:44:56;22.90;99.90
41630;DHT22;27322;49.488;8.480;2023-07-29T11:47:21;23.00;99.90
41630;DHT22;27322;49.488;8.480;2023-07-29T11:49:47;23.00;99.90
41630;DHT22;27322;49.488;8.480;2023-07-29T11:52:12;23.00;99.90
41630;DHT22;27322;49.488;8.480;2023-07-29T11:54:39;23.10;99.90
41630;DHT22;27322;49.488;8.480;2023-07-29T11:57:08;23.10;99.90
41630;DHT22;27322;49.488;8.480;2023-07-29T11:59:35;23.10;99.90
41630;DHT22;27322;49.488;8.480;2023-07-29T12:02:05;23.20;99.90
41630;DHT22;27322;49.488;8.480;2023-07-29T12:04:31;23.20;99.90
41630;DHT22;27322;49.488;8.480;2023-07-29T12:06:58;23.20;99.90
41630;DHT22;27322;49.488;8.480;2023-07-29T12:09:24;23.10;99.90
41630;DHT22;27322;49.488;8.480;2023-07-29T12:11:50;23.10;99.90
41630;DHT22;27322;49.488;8.480;2023-07-29T12:14:17;23.10;99.90
41630;DHT22;27322;49.488;8.480;2023-07-29T12:16:43;23.10;99.90
41630;DHT22;27322;49.488;8.480;2023-07-29T12:19:12;23.10;99.90
41630;DHT22;27322;49.488;8.480;2023-07-29T12:21:38;23.10;99.90
41630;DHT22;27322;49.488;8.480;2023-07-29T12:24:04;23.10;99.90
41630;DHT22;27322;49.488;8.480;2023-07-29T12:26:30;23.00;99.90
41630;DHT22;27322;49.488;8.480;2023-07-29T12:28:55;23.00;99.90
41630;DHT22;27322;49.488;8.480;2023-07-29T12:31:22;23.00;99.90
41630;DHT22;27322;49.488;8.480;2023-07-29T12:33:56;23.00;99.90
41630;DHT22;27322;49.488;8.480;2023-07-29T12:36:22;23.00;99.90
41630;DHT22;27322;49.488;8.480;2023-07-29T12:38:52;23.10;99.90
41630;DHT22;27322;49.488;8.480;2023-07-29T12:41:17;23.10;99.90
41630;DHT22;27322;49.488;8.480;2023-07-29T12:43:43;23.10;99.90
41630;DHT22;27322;49.488;8.480;2023-07-29T12:46:09;23.10;99.90
41630;DHT22;27322;49.488;8.480;2023-07-29T12:48:34;23.10;99.90
41630;DHT22;27322;49.488;8.480;2023-07-29T12:51:00;23.20;99.90
41630;DHT22;27322;49.488;8.480;2023-07-29T12:53:25;23.30;99.90
41630;DHT22;27322;49.488;8.480;2023-07-29T12:55:51;23.30;99.90
41630;DHT22;27322;49.488;8.480;2023-07-29T12:58:16;23.40;99.90
41630;DHT22;27322;49.488;8.480;2023-07-29T13:00:42;23.40;99.90
41630;DHT22;27322;49.488;8.480;2023-07-29T13:03:08;23.40;99.90
41630;DHT22;27322;49.488;8.480;2023-07-29T13:05:33;23.40;99.90
41630;DHT22;27322;49.488;8.480;2023-07-29T13:07:59;23.40;99.90
41630;DHT22;27322;49.488;8.480;2023-07-29T13:10:25;23.40;99.90
41630;DHT22;27322;49.488;8.480;2023-07-29T13:12:51;23.40;99.90
41630;DHT22;27322;49.488;8.480;2023-07-29T13:15:16;23.40;99.90
41630;DHT22;27322;49.488;8.480;2023-07-29T13:17:42;23.40;99.90
41630;DHT22;27322;49.488;8.480;2023-07-29T13:20:08;23.40;99.90
41630;DHT22;27322;49.488;8.480;2023-07-29T13:22:34;23.40;99.90
41630;DHT22;27322;49.488;8.480;2023-07-29T13:24:59;23.30;99.90
41630;DHT22;27322;49.488;8.480;2023-07-29T13:27:25;23.30;99.90
41630;DHT22;27322;49.488;8.480;2023-07-29T13:29:52;23.40;99.90
41630;DHT22;27322;49.488;8.480;2023-07-29T13:32:17;23.40;99.90
41630;DHT22;27322;49.488;8.480;2023-07-29T13:34:43;23.30;99.90
41630;DHT22;27322;49.488;8.480;2023-07-29T13:37:08;23.40;99.90
41630;DHT22;27322;49.488;8.480;2023-07-29T13:39:34;23.30;99.90
41630;DHT22;27322;49.488;8.480;2023-07-29T13:41:59;23.40;99.90
41630;DHT22;27322;49.488;8.480;2023-07-29T13:44:25;23.40;99.90
41630;DHT22;27322;49.488;8.480;2023-07-29T13:46:51;23.40;99.90
41630;DHT22;27322;49.488;8.480;2023-07-29T13:49:16;23.50;99.90
41630;DHT22;27322;49.488;8.480;2023-07-29T13:51:42;23.50;99.90
41630;DHT22;27322;49.488;8.480;2023-07-29T13:54:08;23.50;99.90
41630;DHT22;27322;49.488;8.480;2023-07-29T13:56:33;23.40;99.90
41630;DHT22;27322;49.488;8.480;2023-07-29T13:58:59;23.40;99.90
41630;DHT22;27322;49.488;8.480;2023-07-29T14:01:24;23.40;99.90
41630;DHT22;27322;49.488;8.480;2023-07-29T14:03:50;23.50;99.90
41630;DHT22;27322;49.488;8.480;2023-07-29T14:06:16;23.50;99.90
41630;DHT22;27322;49.488;8.480;2023-07-29T14:08:41;23.60;99.90
41630;DHT22;27322;49.488;8.480;2023-07-29T14:11:07;23.60;99.90
41630;DHT22;27322;49.488;8.480;2023-07-29T14:13:33;23.70;99.90
41630;DHT22;27322;49.488;8.480;2023-07-29T14:16:01;23.70;99.90
41630;DHT22;27322;49.488;8.480;2023-07-29T14:18:28;23.80;99.90
41630;DHT22;27322;49.488;8.480;2023-07-29T14:20:53;23.70;99.90
41630;DHT22;27322;49.488;8.480;2023-07-29T14:23:19;23.60;99.90
41630;DHT22;27322;49.488;8.480;2023-07-29T14:25:44;23.60;99.90
41630;DHT22;27322;49.488;8.480;2023-07-29T14:28:10;23.60;99.90
41630;DHT22;27322;49.488;8.480;2023-07-29T14:30:35;23.50;99.90
41630;DHT22;27322;49.488;8.480;2023-07-29T14:33:03;23.60;99.90
41630;DHT22;27322;49.488;8.480;2023-07-29T14:35:28;23.50;99.90
41630;DHT22;27322;49.488;8.480;2023-07-29T14:37:54;23.50;99.90
41630;DHT22;27322;49.488;8.480;2023-07-29T14:40:19;23.50;99.90
41630;DHT22;27322;49.488;8.480;2023-07-29T14:42:45;23.50;99.90
41630;DHT22;27322;49.488;8.480;2023-07-29T14:45:10;23.50;99.90
41630;DHT22;27322;49.488;8.480;2023-07-29T14:47:36;23.50;99.90
41630;DHT22;27322;49.488;8.480;2023-07-29T14:50:02;23.50;99.90
41630;DHT22;27322;49.488;8.480;2023-07-29T14:52:27;23.50;99.90
41630;DHT22;27322;49.488;8.480;2023-07-29T14:54:53;23.50;99.90
41630;DHT22;27322;49.488;8.480;2023-07-29T14:57:18;23.50;99.90
41630;DHT22;27322;49.488;8.480;2023-07-29T14:59:44;23.40;99.90
41630;DHT22;27322;49.488;8.480;2023-07-29T15:02:09;23.40;99.90
41630;DHT22;27322;49.488;8.480;2023-07-29T15:04:35;23.40;99.90
41630;DHT22;27322;49.488;8.480;2023-07-29T15:07:02;23.30;99.90
41630;DHT22;27322;49.488;8.480;2023-07-29T15:09:28;23.30;99.90
41630;DHT22;27322;49.488;8.480;2023-07-29T15:11:53;23.40;99.90
41630;DHT22;27322;49.488;8.480;2023-07-29T15:14:19;23.40;99.90
41630;DHT22;27322;49.488;8.480;2023-07-29T15:16:44;23.40;99.90
41630;DHT22;27322;49.488;8.480;2023-07-29T15:19:10;23.40;99.90
41630;DHT22;27322;49.488;8.480;2023-07-29T15:21:36;23.40;99.90
41630;DHT22;27322;49.488;8.480;2023-07-29T15:24:01;23.50;99.90
41630;DHT22;27322;49.488;8.480;2023-07-29T15:26:27;23.40;99.90
41630;DHT22;27322;49.488;8.480;2023-07-29T15:28:53;23.50;99.90
41630;DHT22;27322;49.488;8.480;2023-07-29T15:31:19;23.50;99.90
41630;DHT22;27322;49.488;8.480;2023-07-29T15:33:44;23.40;99.90
41630;DHT22;27322;49.488;8.480;2023-07-29T15:36:10;23.40;99.90
41630;DHT22;27322;49.488;8.480;2023-07-29T15:38:35;23.40;99.90
41630;DHT22;27322;49.488;8.480;2023-07-29T15:41:01;23.40;99.90
41630;DHT22;27322;49.488;8.480;2023-07-29T15:43:27;23.30;99.90